^^
Station Historical Data
Daily Summary for May 17, 2017 Units:  Both    English   Metric
« Previous Day
Next Day »
Daily Weekly Monthly Yearly Custom
  High: Low: Average:
Temperature: 74.7 °F /  23.7 °C 46.0 °F /  7.8 °C 58.9 °F /  14.9 °C
Dew Point: 38.8 °F /  3.8 °C 28.9 °F /  -1.7 °C 32.9 °F /  0.5 °C
Humidity: 67% 20% 40%
Wind Speed: 6.9mph /  11.1km/h - 1mph /  1.6km/h
Wind Gust: 12.0mph /  19.3km/h - -
Wind- - ESE
Pressure: 30.42 in /  1030 hPa 30.11 in /  1019.5 hPa -
Precipitation: 0.00 in /  0 mm    
Historical Graphs
 
 
Tabular Data for May 17, 2017
Time Temperature Dew Point Pressure Wind Wind Speed Wind Gust Humidity Rainfall Rate (Hourly) solar Conditions
00:02 49.3 °F /  9.6 °C 29.3 °F /  -1.5 °C 30.13in /  1020.2hPa Calm   2.0mph /  3.2km/h 46% 0.00in /  0mm 0.0 W/m2
00:08 49.5 °F /  9.7 °C 29.5 °F /  -1.4 °C 30.13in /  1020.2hPa Calm   1.0mph /  1.6km/h 46% 0.00in /  0mm 0.0 W/m2
00:15 49.5 °F /  9.7 °C 29.5 °F /  -1.4 °C 30.13in /  1020.2hPa ESE 0.9mph /  1.4km/h 1.0mph /  1.6km/h 46% 0.00in /  0mm 0.0 W/m2
00:21 49.5 °F /  9.7 °C 29.5 °F /  -1.4 °C 30.13in /  1020.2hPa ESE 0.9mph /  1.4km/h 2.0mph /  3.2km/h 46% 0.00in /  0mm 0.0 W/m2
00:27 49.5 °F /  9.7 °C 29.5 °F /  -1.4 °C 30.13in /  1020.2hPa Calm   2.0mph /  3.2km/h 46% 0.00in /  0mm 0.0 W/m2
00:33 49.5 °F /  9.7 °C 29.5 °F /  -1.4 °C 30.13in /  1020.2hPa Calm   3.0mph /  4.8km/h 46% 0.00in /  0mm 0.0 W/m2
00:39 49.5 °F /  9.7 °C 29.5 °F /  -1.4 °C 30.12in /  1019.9hPa NE 0.9mph /  1.4km/h 3.0mph /  4.8km/h 46% 0.00in /  0mm 0.0 W/m2
00:45 49.6 °F /  9.8 °C 29.1 °F /  -1.6 °C 30.12in /  1019.9hPa SE 0.9mph /  1.4km/h 1.0mph /  1.6km/h 45% 0.00in /  0mm 0.0 W/m2
00:51 49.6 °F /  9.8 °C 29.1 °F /  -1.6 °C 30.12in /  1019.9hPa Calm   2.0mph /  3.2km/h 45% 0.00in /  0mm 0.0 W/m2
00:58 49.5 °F /  9.7 °C 28.9 °F /  -1.7 °C 30.12in /  1019.9hPa Calm   1.0mph /  1.6km/h 45% 0.00in /  0mm 0.0 W/m2
01:04 49.5 °F /  9.7 °C 28.9 °F /  -1.7 °C 30.12in /  1019.9hPa Calm   2.0mph /  3.2km/h 45% 0.00in /  0mm 0.0 W/m2
01:10 49.5 °F /  9.7 °C 29.5 °F /  -1.4 °C 30.12in /  1019.9hPa Calm     46% 0.00in /  0mm 0.0 W/m2
01:16 49.3 °F /  9.6 °C 29.3 °F /  -1.5 °C 30.12in /  1019.9hPa Calm     46% 0.00in /  0mm 0.0 W/m2
01:22 49.3 °F /  9.6 °C 29.3 °F /  -1.5 °C 30.12in /  1019.9hPa East 0.9mph /  1.4km/h 5.0mph /  8km/h 46% 0.00in /  0mm 0.0 W/m2
01:28 49.3 °F /  9.6 °C 29.3 °F /  -1.5 °C 30.12in /  1019.9hPa Calm   2.0mph /  3.2km/h 46% 0.00in /  0mm 0.0 W/m2
01:34 48.9 °F /  9.4 °C 29.1 °F /  -1.6 °C 30.11in /  1019.5hPa Calm     46% 0.00in /  0mm 0.0 W/m2
01:40 48.9 °F /  9.4 °C 29.1 °F /  -1.6 °C 30.11in /  1019.5hPa Calm     46% 0.00in /  0mm 0.0 W/m2
01:46 48.9 °F /  9.4 °C 29.1 °F /  -1.6 °C 30.11in /  1019.5hPa ENE 0.9mph /  1.4km/h 1.0mph /  1.6km/h 46% 0.00in /  0mm 0.0 W/m2
01:53 48.9 °F /  9.4 °C 29.1 °F /  -1.6 °C 30.11in /  1019.5hPa ENE 0.9mph /  1.4km/h 3.0mph /  4.8km/h 46% 0.00in /  0mm 0.0 W/m2
01:59 48.9 °F /  9.4 °C 29.1 °F /  -1.6 °C 30.11in /  1019.5hPa Calm     46% 0.00in /  0mm 0.0 W/m2
02:05 48.9 °F /  9.4 °C 29.1 °F /  -1.6 °C 30.11in /  1019.5hPa Calm     46% 0.00in /  0mm 0.0 W/m2
02:09 48.9 °F /  9.4 °C 29.1 °F /  -1.6 °C 30.11in /  1019.5hPa Calm   1.0mph /  1.6km/h 46% 0.00in /  0mm 0.0 W/m2
02:15 48.9 °F /  9.4 °C 29.1 °F /  -1.6 °C 30.11in /  1019.5hPa Calm   1.0mph /  1.6km/h 46% 0.00in /  0mm 0.0 W/m2
02:21 48.7 °F /  9.3 °C 29.5 °F /  -1.4 °C 30.11in /  1019.5hPa Calm   1.0mph /  1.6km/h 47% 0.00in /  0mm 0.0 W/m2
02:27 48.6 °F /  9.2 °C 29.8 °F /  -1.2 °C 30.11in /  1019.5hPa Calm   2.0mph /  3.2km/h 48% 0.00in /  0mm 0.0 W/m2
02:33 48.4 °F /  9.1 °C 29.7 °F /  -1.3 °C 30.11in /  1019.5hPa Calm   4.0mph /  6.4km/h 48% 0.00in /  0mm 0.0 W/m2
02:39 48.4 °F /  9.1 °C 30.0 °F /  -1.1 °C 30.11in /  1019.5hPa Calm   4.0mph /  6.4km/h 49% 0.00in /  0mm 0.0 W/m2
02:46 48.2 °F /  9 °C 30.0 °F /  -1.1 °C 30.11in /  1019.5hPa Calm   4.0mph /  6.4km/h 49% 0.00in /  0mm 0.0 W/m2
02:52 48.0 °F /  8.9 °C 30.2 °F /  -1 °C 30.11in /  1019.5hPa ESE 0.9mph /  1.4km/h 4.0mph /  6.4km/h 50% 0.00in /  0mm 0.0 W/m2
02:58 47.8 °F /  8.8 °C 30.6 °F /  -0.8 °C 30.11in /  1019.5hPa Calm   2.0mph /  3.2km/h 51% 0.00in /  0mm 0.0 W/m2
03:04 47.8 °F /  8.8 °C 30.6 °F /  -0.8 °C 30.11in /  1019.5hPa Calm   4.0mph /  6.4km/h 51% 0.00in /  0mm 0.0 W/m2
03:10 47.8 °F /  8.8 °C 30.6 °F /  -0.8 °C 30.39in /  1029hPa East 2.0mph /  3.2km/h 5.0mph /  8km/h 51% 0.00in /  0mm 0.0 W/m2
03:12 47.8 °F /  8.8 °C 30.6 °F /  -0.8 °C 30.39in /  1029hPa Calm   4.0mph /  6.4km/h 51% 0.00in /  0mm 0.0 W/m2
03:18 47.8 °F /  8.8 °C 31.1 °F /  -0.5 °C 30.39in /  1029hPa Calm   2.0mph /  3.2km/h 52% 0.00in /  0mm 0.0 W/m2
03:25 47.8 °F /  8.8 °C 31.1 °F /  -0.5 °C 30.39in /  1029hPa Calm   2.0mph /  3.2km/h 52% 0.00in /  0mm 0.0 W/m2
03:31 47.8 °F /  8.8 °C 31.5 °F /  -0.3 °C 30.39in /  1029hPa Calm   2.0mph /  3.2km/h 53% 0.00in /  0mm 0.0 W/m2
03:37 47.7 °F /  8.7 °C 31.3 °F /  -0.4 °C 30.38in /  1028.7hPa Calm   1.0mph /  1.6km/h 53% 0.00in /  0mm 0.0 W/m2
03:43 47.7 °F /  8.7 °C 31.3 °F /  -0.4 °C 30.38in /  1028.7hPa Calm   2.0mph /  3.2km/h 53% 0.00in /  0mm 0.0 W/m2
03:49 47.7 °F /  8.7 °C 31.8 °F /  -0.1 °C 30.38in /  1028.7hPa Calm   4.0mph /  6.4km/h 54% 0.00in /  0mm 0.0 W/m2
03:55 47.5 °F /  8.6 °C 31.6 °F /  -0.2 °C 30.38in /  1028.7hPa Calm   1.0mph /  1.6km/h 54% 0.00in /  0mm 0.0 W/m2
04:01 47.5 °F /  8.6 °C 32.2 °F /  0.1 °C 30.38in /  1028.7hPa Calm   1.0mph /  1.6km/h 55% 0.00in /  0mm 0.0 W/m2
04:08 47.5 °F /  8.6 °C 32.2 °F /  0.1 °C 30.38in /  1028.7hPa Calm   1.0mph /  1.6km/h 55% 0.00in /  0mm 0.0 W/m2
04:14 47.3 °F /  8.5 °C 32.0 °F /  0 °C 30.38in /  1028.7hPa Calm   3.0mph /  4.8km/h 55% 0.00in /  0mm 0.0 W/m2
04:20 47.3 °F /  8.5 °C 32.4 °F /  0.2 °C 30.38in /  1028.7hPa Calm   2.0mph /  3.2km/h 56% 0.00in /  0mm 0.0 W/m2
04:26 47.1 °F /  8.4 °C 32.2 °F /  0.1 °C 30.38in /  1028.7hPa Calm   2.0mph /  3.2km/h 56% 0.00in /  0mm 0.0 W/m2
04:32 47.1 °F /  8.4 °C 32.7 °F /  0.4 °C 30.38in /  1028.7hPa Calm   3.0mph /  4.8km/h 57% 0.00in /  0mm 0.0 W/m2
04:38 47.1 °F /  8.4 °C 32.7 °F /  0.4 °C 30.38in /  1028.7hPa Calm   3.0mph /  4.8km/h 57% 0.00in /  0mm 0.0 W/m2
04:45 47.1 °F /  8.4 °C 32.7 °F /  0.4 °C 30.38in /  1028.7hPa Calm   3.0mph /  4.8km/h 57% 0.00in /  0mm 0.0 W/m2
04:50 47.1 °F /  8.4 °C 33.1 °F /  0.6 °C 30.38in /  1028.7hPa Calm   3.0mph /  4.8km/h 58% 0.00in /  0mm 0.0 W/m2
04:55 46.9 °F /  8.3 °C 32.9 °F /  0.5 °C 30.38in /  1028.7hPa Calm   1.0mph /  1.6km/h 58% 0.00in /  0mm 0.0 W/m2
05:00 46.9 °F /  8.3 °C 32.9 °F /  0.5 °C 30.38in /  1028.7hPa Calm   1.0mph /  1.6km/h 58% 0.00in /  0mm 0.0 W/m2
05:05 46.9 °F /  8.3 °C 32.9 °F /  0.5 °C 30.38in /  1028.7hPa Calm   4.0mph /  6.4km/h 58% 0.00in /  0mm 0.0 W/m2
05:11 46.9 °F /  8.3 °C 32.9 °F /  0.5 °C 30.38in /  1028.7hPa Calm   1.0mph /  1.6km/h 58% 0.00in /  0mm 0.0 W/m2
05:18 46.8 °F /  8.2 °C 33.3 °F /  0.7 °C 30.38in /  1028.7hPa ENE 0.9mph /  1.4km/h 4.0mph /  6.4km/h 59% 0.00in /  0mm 0.0 W/m2
05:24 46.8 °F /  8.2 °C 33.3 °F /  0.7 °C 30.38in /  1028.7hPa Calm     59% 0.00in /  0mm 0.0 W/m2
05:30 46.8 °F /  8.2 °C 33.6 °F /  0.9 °C 30.38in /  1028.7hPa Calm     60% 0.00in /  0mm 0.0 W/m2
05:36 46.6 °F /  8.1 °C 33.4 °F /  0.8 °C 30.39in /  1029hPa Calm     60% 0.00in /  0mm 0.0 W/m2
05:42 46.6 °F /  8.1 °C 33.4 °F /  0.8 °C 30.39in /  1029hPa Calm   2.0mph /  3.2km/h 60% 0.00in /  0mm 0.0 W/m2
05:48 46.6 °F /  8.1 °C 33.4 °F /  0.8 °C 30.39in /  1029hPa Calm   1.0mph /  1.6km/h 60% 0.00in /  0mm 0.0 W/m2
05:53 46.6 °F /  8.1 °C 33.8 °F /  1 °C 30.39in /  1029hPa Calm   3.0mph /  4.8km/h 61% 0.00in /  0mm 0.0 W/m2
05:58 46.4 °F /  8 °C 33.6 °F /  0.9 °C 30.39in /  1029hPa Calm   2.0mph /  3.2km/h 61% 0.00in /  0mm 0.0 W/m2
06:04 46.4 °F /  8 °C 33.6 °F /  0.9 °C 30.39in /  1029hPa Calm   3.0mph /  4.8km/h 61% 0.00in /  0mm 0.0 W/m2
06:10 46.4 °F /  8 °C 33.6 °F /  0.9 °C 30.39in /  1029hPa Calm   2.0mph /  3.2km/h 61% 0.00in /  0mm 0.0 W/m2
06:16 46.2 °F /  7.9 °C 34.0 °F /  1.1 °C 30.39in /  1029hPa Calm   3.0mph /  4.8km/h 62% 0.00in /  0mm 0.0 W/m2
06:22 46.2 °F /  7.9 °C 34.0 °F /  1.1 °C 30.39in /  1029hPa Calm   1.0mph /  1.6km/h 62% 0.00in /  0mm 5.0 W/m2
06:29 46.0 °F /  7.8 °C 34.2 °F /  1.2 °C 30.39in /  1029hPa Calm   3.0mph /  4.8km/h 63% 0.00in /  0mm 7.0 W/m2
06:35 46.0 °F /  7.8 °C 34.2 °F /  1.2 °C 30.39in /  1029hPa Calm   1.0mph /  1.6km/h 63% 0.00in /  0mm 9.0 W/m2
06:41 46.0 °F /  7.8 °C 34.2 °F /  1.2 °C 30.39in /  1029hPa Calm   1.0mph /  1.6km/h 63% 0.00in /  0mm 11.0 W/m2
06:47 46.0 °F /  7.8 °C 34.5 °F /  1.4 °C 30.40in /  1029.3hPa Calm     64% 0.00in /  0mm 12.0 W/m2
06:53 46.0 °F /  7.8 °C 34.5 °F /  1.4 °C 30.40in /  1029.3hPa Calm   2.0mph /  3.2km/h 64% 0.00in /  0mm 14.0 W/m2
06:59 46.0 °F /  7.8 °C 34.9 °F /  1.6 °C 30.40in /  1029.3hPa Calm     65% 0.00in /  0mm 14.0 W/m2
07:06 46.0 °F /  7.8 °C 34.5 °F /  1.4 °C 30.40in /  1029.3hPa Calm     64% 0.00in /  0mm 16.0 W/m2
07:12 46.0 °F /  7.8 °C 34.9 °F /  1.6 °C 30.40in /  1029.3hPa Calm     65% 0.00in /  0mm 18.0 W/m2
07:18 46.0 °F /  7.8 °C 35.2 °F /  1.8 °C 30.40in /  1029.3hPa Calm     66% 0.00in /  0mm 19.0 W/m2
07:24 46.2 °F /  7.9 °C 35.4 °F /  1.9 °C 30.41in /  1029.7hPa Calm     66% 0.00in /  0mm 19.0 W/m2
07:30 46.6 °F /  8.1 °C 36.1 °F /  2.3 °C 30.41in /  1029.7hPa Calm     67% 0.00in /  0mm 21.0 W/m2
07:36 47.1 °F /  8.4 °C 36.0 °F /  2.2 °C 30.41in /  1029.7hPa Calm     65% 0.00in /  0mm 23.0 W/m2
07:43 47.8 °F /  8.8 °C 36.3 °F /  2.4 °C 30.41in /  1029.7hPa Calm     64% 0.00in /  0mm 23.0 W/m2
07:49 48.4 °F /  9.1 °C 36.3 °F /  2.4 °C 30.41in /  1029.7hPa Calm     63% 0.00in /  0mm 25.0 W/m2
07:55 48.9 °F /  9.4 °C 36.9 °F /  2.7 °C 30.41in /  1029.7hPa Calm     63% 0.00in /  0mm 25.0 W/m2
08:01 49.6 °F /  9.8 °C 37.2 °F /  2.9 °C 30.41in /  1029.7hPa Calm     62% 0.00in /  0mm 26.0 W/m2
08:07 50.7 °F /  10.4 °C 37.8 °F /  3.2 °C 30.41in /  1029.7hPa Calm     61% 0.00in /  0mm 276.0 W/m2
08:13 52.5 °F /  11.4 °C 38.1 °F /  3.4 °C 30.41in /  1029.7hPa Calm   1.0mph /  1.6km/h 58% 0.00in /  0mm 387.0 W/m2
08:19 55.6 °F /  13.1 °C 38.3 °F /  3.5 °C 30.41in /  1029.7hPa Calm   4.0mph /  6.4km/h 52% 0.00in /  0mm 406.0 W/m2
08:26 58.5 °F /  14.7 °C 38.8 °F /  3.8 °C 30.41in /  1029.7hPa Calm   2.0mph /  3.2km/h 48% 0.00in /  0mm 427.0 W/m2
08:32 60.6 °F /  15.9 °C 37.9 °F /  3.3 °C 30.42in /  1030hPa NE 0.9mph /  1.4km/h 5.0mph /  8km/h 43% 0.00in /  0mm 446.0 W/m2
08:38 62.6 °F /  17 °C 37.9 °F /  3.3 °C 30.42in /  1030hPa ENE 0.9mph /  1.4km/h 4.0mph /  6.4km/h 40% 0.00in /  0mm 464.0 W/m2
08:44 64.2 °F /  17.9 °C 37.4 °F /  3 °C 30.42in /  1030hPa NE 2.9mph /  4.7km/h 6.0mph /  9.7km/h 37% 0.00in /  0mm 483.0 W/m2
08:50 65.3 °F /  18.5 °C 38.3 °F /  3.5 °C 30.42in /  1030hPa Calm   4.0mph /  6.4km/h 37% 0.00in /  0mm 503.0 W/m2
08:56 66.2 °F /  19 °C 38.5 °F /  3.6 °C 30.42in /  1030hPa ESE 2.0mph /  3.2km/h 4.0mph /  6.4km/h 36% 0.00in /  0mm 520.0 W/m2
09:02 67.3 °F /  19.6 °C 38.7 °F /  3.7 °C 30.42in /  1030hPa Calm   2.0mph /  3.2km/h 35% 0.00in /  0mm 536.0 W/m2
09:09 67.8 °F /  19.9 °C 38.5 °F /  3.6 °C 30.42in /  1030hPa NNW 2.0mph /  3.2km/h 4.0mph /  6.4km/h 34% 0.00in /  0mm 550.0 W/m2
09:15 68.4 °F /  20.2 °C 34.9 °F /  1.6 °C 30.42in /  1030hPa Calm   6.0mph /  9.7km/h 29% 0.00in /  0mm 571.0 W/m2
09:21 68.7 °F /  20.4 °C 35.2 °F /  1.8 °C 30.42in /  1030hPa Calm   4.0mph /  6.4km/h 29% 0.00in /  0mm 587.0 W/m2
09:27 69.3 °F /  20.7 °C 34.7 °F /  1.5 °C 30.42in /  1030hPa NE 2.0mph /  3.2km/h 7.0mph /  11.3km/h 28% 0.00in /  0mm 599.0 W/m2
09:33 70.0 °F /  21.1 °C 35.4 °F /  1.9 °C 30.42in /  1030hPa ESE 0.9mph /  1.4km/h 7.0mph /  11.3km/h 28% 0.00in /  0mm 613.0 W/m2
09:39 70.2 °F /  21.2 °C 33.6 °F /  0.9 °C 30.42in /  1030hPa NE 4.0mph /  6.4km/h 5.0mph /  8km/h 26% 0.00in /  0mm 626.0 W/m2
09:45 70.2 °F /  21.2 °C 34.7 °F /  1.5 °C 30.42in /  1030hPa NNE 2.9mph /  4.7km/h 6.0mph /  9.7km/h 27% 0.00in /  0mm 640.0 W/m2
09:51 70.7 °F /  21.5 °C 34.2 °F /  1.2 °C 30.41in /  1029.7hPa Calm   2.0mph /  3.2km/h 26% 0.00in /  0mm 654.0 W/m2
09:58 71.1 °F /  21.7 °C 33.4 °F /  0.8 °C 30.41in /  1029.7hPa NE 4.0mph /  6.4km/h 4.0mph /  6.4km/h 25% 0.00in /  0mm 664.0 W/m2
10:04 71.4 °F /  21.9 °C 33.8 °F /  1 °C 30.41in /  1029.7hPa Calm   3.0mph /  4.8km/h 25% 0.00in /  0mm 673.0 W/m2
10:10 71.4 °F /  21.9 °C 32.7 °F /  0.4 °C 30.41in /  1029.7hPa East 2.0mph /  3.2km/h 8.0mph /  12.9km/h 24% 0.00in /  0mm 687.0 W/m2
10:16 71.4 °F /  21.9 °C 32.7 °F /  0.4 °C 30.40in /  1029.3hPa ENE 2.0mph /  3.2km/h 8.0mph /  12.9km/h 24% 0.00in /  0mm 694.0 W/m2
10:22 71.8 °F /  22.1 °C 33.1 °F /  0.6 °C 30.40in /  1029.3hPa NNE 4.0mph /  6.4km/h 7.0mph /  11.3km/h 24% 0.00in /  0mm 703.0 W/m2
10:28 72.0 °F /  22.2 °C 33.3 °F /  0.7 °C 30.40in /  1029.3hPa NW 0.9mph /  1.4km/h 3.0mph /  4.8km/h 24% 0.00in /  0mm 714.0 W/m2
10:36 72.0 °F /  22.2 °C 32.2 °F /  0.1 °C 30.39in /  1029hPa ENE 6.9mph /  11.1km/h 7.0mph /  11.3km/h 23% 0.00in /  0mm 722.0 W/m2
10:42 71.8 °F /  22.1 °C 33.1 °F /  0.6 °C 30.39in /  1029hPa East 0.9mph /  1.4km/h 4.0mph /  6.4km/h 24% 0.00in /  0mm 728.0 W/m2
10:49 71.8 °F /  22.1 °C 34.0 °F /  1.1 °C 30.39in /  1029hPa NE 2.9mph /  4.7km/h 7.0mph /  11.3km/h 25% 0.00in /  0mm 737.0 W/m2
10:55 72.1 °F /  22.3 °C 34.3 °F /  1.3 °C 30.39in /  1029hPa NE 4.9mph /  7.9km/h 6.0mph /  9.7km/h 25% 0.00in /  0mm 740.0 W/m2
11:01 72.3 °F /  22.4 °C 34.5 °F /  1.4 °C 30.39in /  1029hPa Calm   4.0mph /  6.4km/h 25% 0.00in /  0mm 745.0 W/m2
11:07 72.7 °F /  22.6 °C 34.9 °F /  1.6 °C 30.38in /  1028.7hPa NNE 4.9mph /  7.9km/h 8.0mph /  12.9km/h 25% 0.00in /  0mm 749.0 W/m2
11:13 72.5 °F /  22.5 °C 34.7 °F /  1.5 °C 30.38in /  1028.7hPa North 6.0mph /  9.7km/h 7.0mph /  11.3km/h 25% 0.00in /  0mm 752.0 W/m2
11:19 72.5 °F /  22.5 °C 33.6 °F /  0.9 °C 30.38in /  1028.7hPa Calm   7.0mph /  11.3km/h 24% 0.00in /  0mm 756.0 W/m2
11:25 72.7 °F /  22.6 °C 34.9 °F /  1.6 °C 30.38in /  1028.7hPa NNE 4.0mph /  6.4km/h 4.0mph /  6.4km/h 25% 0.00in /  0mm 758.0 W/m2
11:31 73.0 °F /  22.8 °C 33.1 °F /  0.6 °C 30.37in /  1028.3hPa NE 2.0mph /  3.2km/h 9.0mph /  14.5km/h 23% 0.00in /  0mm 759.0 W/m2
11:37 72.9 °F /  22.7 °C 34.0 °F /  1.1 °C 30.37in /  1028.3hPa East 0.9mph /  1.4km/h 5.0mph /  8km/h 24% 0.00in /  0mm 761.0 W/m2
11:44 73.0 °F /  22.8 °C 32.0 °F /  0 °C 30.37in /  1028.3hPa NE 4.9mph /  7.9km/h 6.0mph /  9.7km/h 22% 0.00in /  0mm 761.0 W/m2
11:50 73.4 °F /  23 °C 33.3 °F /  0.7 °C 30.37in /  1028.3hPa Calm   3.0mph /  4.8km/h 23% 0.00in /  0mm 761.0 W/m2
11:56 73.8 °F /  23.2 °C 33.6 °F /  0.9 °C 30.36in /  1028hPa NW 2.0mph /  3.2km/h 5.0mph /  8km/h 23% 0.00in /  0mm 759.0 W/m2
12:02 73.9 °F /  23.3 °C 33.8 °F /  1 °C 30.36in /  1028hPa NNW 4.9mph /  7.9km/h 12.0mph /  19.3km/h 23% 0.00in /  0mm 754.0 W/m2
12:08 73.6 °F /  23.1 °C 33.4 °F /  0.8 °C 30.36in /  1028hPa ENE 2.9mph /  4.7km/h 5.0mph /  8km/h 23% 0.00in /  0mm 752.0 W/m2
12:14 73.2 °F /  22.9 °C 34.3 °F /  1.3 °C 30.35in /  1027.7hPa NNW 0.9mph /  1.4km/h 5.0mph /  8km/h 24% 0.00in /  0mm 747.0 W/m2
12:21 73.8 °F /  23.2 °C 33.6 °F /  0.9 °C 30.35in /  1027.7hPa ESE 6.0mph /  9.7km/h 8.0mph /  12.9km/h 23% 0.00in /  0mm 745.0 W/m2
12:27 73.6 °F /  23.1 °C 33.4 °F /  0.8 °C 30.35in /  1027.7hPa Calm   6.0mph /  9.7km/h 23% 0.00in /  0mm 740.0 W/m2
12:33 73.6 °F /  23.1 °C 33.4 °F /  0.8 °C 30.35in /  1027.7hPa NNE 2.0mph /  3.2km/h 5.0mph /  8km/h 23% 0.00in /  0mm 735.0 W/m2
12:39 73.8 °F /  23.2 °C 34.7 °F /  1.5 °C 30.34in /  1027.3hPa East 2.0mph /  3.2km/h 4.0mph /  6.4km/h 24% 0.00in /  0mm 731.0 W/m2
12:45 73.8 °F /  23.2 °C 33.6 °F /  0.9 °C 30.34in /  1027.3hPa NW 0.9mph /  1.4km/h 7.0mph /  11.3km/h 23% 0.00in /  0mm 722.0 W/m2
12:51 73.9 °F /  23.3 °C 33.8 °F /  1 °C 30.33in /  1027hPa Calm   4.0mph /  6.4km/h 23% 0.00in /  0mm 715.0 W/m2
12:57 74.3 °F /  23.5 °C 33.1 °F /  0.6 °C 30.33in /  1027hPa NNW 4.9mph /  7.9km/h 10.0mph /  16.1km/h 22% 0.00in /  0mm 708.0 W/m2
13:04 74.1 °F /  23.4 °C 32.9 °F /  0.5 °C 30.32in /  1026.6hPa Calm   3.0mph /  4.8km/h 22% 0.00in /  0mm 700.0 W/m2
13:10 74.5 °F /  23.6 °C 33.1 °F /  0.6 °C 30.32in /  1026.6hPa South 2.9mph /  4.7km/h 5.0mph /  8km/h 22% 0.00in /  0mm 691.0 W/m2
13:16 74.7 °F /  23.7 °C 32.2 °F /  0.1 °C 30.32in /  1026.6hPa NNE 2.9mph /  4.7km/h 6.0mph /  9.7km/h 21% 0.00in /  0mm 680.0 W/m2
13:22 74.5 °F /  23.6 °C 32.0 °F /  0 °C 30.32in /  1026.6hPa NE 4.0mph /  6.4km/h 9.0mph /  14.5km/h 21% 0.00in /  0mm 670.0 W/m2
13:28 74.3 °F /  23.5 °C 31.8 °F /  -0.1 °C 30.31in /  1026.3hPa East 0.9mph /  1.4km/h 5.0mph /  8km/h 21% 0.00in /  0mm 659.0 W/m2
13:34 74.3 °F /  23.5 °C 33.1 °F /  0.6 °C 30.31in /  1026.3hPa Calm   2.0mph /  3.2km/h 22% 0.00in /  0mm 649.0 W/m2
13:40 74.3 °F /  23.5 °C 30.6 °F /  -0.8 °C 30.31in /  1026.3hPa NW 0.9mph /  1.4km/h 6.0mph /  9.7km/h 20% 0.00in /  0mm 638.0 W/m2
13:46 74.5 °F /  23.6 °C 30.7 °F /  -0.7 °C 30.31in /  1026.3hPa NNW 6.0mph /  9.7km/h 9.0mph /  14.5km/h 20% 0.00in /  0mm 626.0 W/m2
13:52 74.5 °F /  23.6 °C 30.7 °F /  -0.7 °C 30.31in /  1026.3hPa NNE 2.0mph /  3.2km/h 10.0mph /  16.1km/h 20% 0.00in /  0mm 610.0 W/m2
13:59 74.5 °F /  23.6 °C 30.7 °F /  -0.7 °C 30.31in /  1026.3hPa North 0.9mph /  1.4km/h 7.0mph /  11.3km/h 20% 0.00in /  0mm 596.0 W/m2
14:05 74.5 °F /  23.6 °C 32.0 °F /  0 °C 30.31in /  1026.3hPa Calm   1.0mph /  1.6km/h 21% 0.00in /  0mm 584.0 W/m2
14:07 74.5 °F /  23.6 °C 30.7 °F /  -0.7 °C 30.31in /  1026.3hPa North 6.0mph /  9.7km/h 9.0mph /  14.5km/h 20% 0.00in /  0mm 578.0 W/m2
14:13 74.3 °F /  23.5 °C 30.6 °F /  -0.8 °C 30.31in /  1026.3hPa Calm   8.0mph /  12.9km/h 20% 0.00in /  0mm 564.0 W/m2
14:19 74.3 °F /  23.5 °C 33.1 °F /  0.6 °C 30.30in /  1026hPa NNE 2.9mph /  4.7km/h 9.0mph /  14.5km/h 22% 0.00in /  0mm 545.0 W/m2
14:25 74.5 °F /  23.6 °C 33.1 °F /  0.6 °C 30.31in /  1026.3hPa NNE 6.9mph /  11.1km/h 8.0mph /  12.9km/h 22% 0.00in /  0mm 527.0 W/m2
14:31 74.1 °F /  23.4 °C 32.9 °F /  0.5 °C 30.30in /  1026hPa NE 4.9mph /  7.9km/h 7.0mph /  11.3km/h 22% 0.00in /  0mm 512.0 W/m2
14:37 74.1 °F /  23.4 °C 31.6 °F /  -0.2 °C 30.30in /  1026hPa Calm   8.0mph /  12.9km/h 21% 0.00in /  0mm 496.0 W/m2
14:43 73.8 °F /  23.2 °C 32.5 °F /  0.3 °C 30.30in /  1026hPa Calm   2.0mph /  3.2km/h 22% 0.00in /  0mm 476.0 W/m2
14:50 73.8 °F /  23.2 °C 32.5 °F /  0.3 °C 30.30in /  1026hPa Calm   4.0mph /  6.4km/h 22% 0.00in /  0mm 459.0 W/m2
14:56 73.9 °F /  23.3 °C 33.8 °F /  1 °C 30.30in /  1026hPa NE 4.9mph /  7.9km/h 7.0mph /  11.3km/h 23% 0.00in /  0mm 436.0 W/m2
15:02 73.9 °F /  23.3 °C 32.7 °F /  0.4 °C 30.30in /  1026hPa Calm   1.0mph /  1.6km/h 22% 0.00in /  0mm 417.0 W/m2
15:08 73.9 °F /  23.3 °C 32.7 °F /  0.4 °C 30.30in /  1026hPa NW 4.0mph /  6.4km/h 6.0mph /  9.7km/h 22% 0.00in /  0mm 399.0 W/m2
15:14 73.6 °F /  23.1 °C 32.4 °F /  0.2 °C 30.30in /  1026hPa NE 2.0mph /  3.2km/h 4.0mph /  6.4km/h 22% 0.00in /  0mm 378.0 W/m2
15:20 73.2 °F /  22.9 °C 33.3 °F /  0.7 °C 30.30in /  1026hPa ESE 4.9mph /  7.9km/h 7.0mph /  11.3km/h 23% 0.00in /  0mm 359.0 W/m2
15:26 73.0 °F /  22.8 °C 33.1 °F /  0.6 °C 30.30in /  1026hPa Calm   4.0mph /  6.4km/h 23% 0.00in /  0mm 341.0 W/m2
15:32 72.9 °F /  22.7 °C 32.9 °F /  0.5 °C 30.30in /  1026hPa Calm   3.0mph /  4.8km/h 23% 0.00in /  0mm 42.0 W/m2
15:39 72.3 °F /  22.4 °C 32.4 °F /  0.2 °C 30.30in /  1026hPa North 0.9mph /  1.4km/h 2.0mph /  3.2km/h 23% 0.00in /  0mm 39.0 W/m2
15:45 72.1 °F /  22.3 °C 33.4 °F /  0.8 °C 30.30in /  1026hPa NNW 0.9mph /  1.4km/h 3.0mph /  4.8km/h 24% 0.00in /  0mm 35.0 W/m2
15:51 72.0 °F /  22.2 °C 32.2 °F /  0.1 °C 30.30in /  1026hPa NE 6.0mph /  9.7km/h 6.0mph /  9.7km/h 23% 0.00in /  0mm 33.0 W/m2
15:57 71.8 °F /  22.1 °C 33.1 °F /  0.6 °C 30.31in /  1026.3hPa Calm   4.0mph /  6.4km/h 24% 0.00in /  0mm 30.0 W/m2
16:03 71.4 °F /  21.9 °C 31.6 °F /  -0.2 °C 30.31in /  1026.3hPa North 4.0mph /  6.4km/h 6.0mph /  9.7km/h 23% 0.00in /  0mm 26.0 W/m2
16:09 71.1 °F /  21.7 °C 31.5 °F /  -0.3 °C 30.31in /  1026.3hPa NNE 2.0mph /  3.2km/h 5.0mph /  8km/h 23% 0.00in /  0mm 23.0 W/m2
16:15 70.7 °F /  21.5 °C 32.2 °F /  0.1 °C 30.31in /  1026.3hPa North 2.9mph /  4.7km/h 5.0mph /  8km/h 24% 0.00in /  0mm 19.0 W/m2
16:21 70.3 °F /  21.3 °C 31.8 °F /  -0.1 °C 30.31in /  1026.3hPa East 4.0mph /  6.4km/h 6.0mph /  9.7km/h 24% 0.00in /  0mm 21.0 W/m2
16:28 70.2 °F /  21.2 °C 31.6 °F /  -0.2 °C 30.31in /  1026.3hPa NE 0.9mph /  1.4km/h 3.0mph /  4.8km/h 24% 0.00in /  0mm 18.0 W/m2
16:34 70.0 °F /  21.1 °C 31.5 °F /  -0.3 °C 30.31in /  1026.3hPa North 2.9mph /  4.7km/h 7.0mph /  11.3km/h 24% 0.00in /  0mm 26.0 W/m2
16:40 69.6 °F /  20.9 °C 32.2 °F /  0.1 °C 30.31in /  1026.3hPa ENE 2.9mph /  4.7km/h 4.0mph /  6.4km/h 25% 0.00in /  0mm 16.0 W/m2
16:46 69.3 °F /  20.7 °C 32.0 °F /  0 °C 30.31in /  1026.3hPa NNW 0.9mph /  1.4km/h 4.0mph /  6.4km/h 25% 0.00in /  0mm 14.0 W/m2
16:52 69.1 °F /  20.6 °C 31.8 °F /  -0.1 °C 30.31in /  1026.3hPa ENE 2.0mph /  3.2km/h 4.0mph /  6.4km/h 25% 0.00in /  0mm 12.0 W/m2
16:58 68.7 °F /  20.4 °C 31.5 °F /  -0.3 °C 30.31in /  1026.3hPa NE 2.0mph /  3.2km/h 3.0mph /  4.8km/h 25% 0.00in /  0mm 11.0 W/m2
17:04 68.4 °F /  20.2 °C 32.2 °F /  0.1 °C 30.31in /  1026.3hPa NE 0.9mph /  1.4km/h 1.0mph /  1.6km/h 26% 0.00in /  0mm 9.0 W/m2
17:10 68.0 °F /  20 °C 31.8 °F /  -0.1 °C 30.32in /  1026.6hPa Calm   4.0mph /  6.4km/h 26% 0.00in /  0mm 7.0 W/m2
17:16 67.5 °F /  19.7 °C 32.4 °F /  0.2 °C 30.31in /  1026.3hPa Calm   2.0mph /  3.2km/h 27% 0.00in /  0mm 0.0 W/m2
17:23 66.9 °F /  19.4 °C 32.7 °F /  0.4 °C 30.32in /  1026.6hPa Calm   1.0mph /  1.6km/h 28% 0.00in /  0mm 0.0 W/m2
17:29 66.4 °F /  19.1 °C 32.4 °F /  0.2 °C 30.32in /  1026.6hPa Calm   1.0mph /  1.6km/h 28% 0.00in /  0mm 0.0 W/m2
17:35 65.7 °F /  18.7 °C 33.4 °F /  0.8 °C 30.32in /  1026.6hPa Calm     30% 0.00in /  0mm 0.0 W/m2
17:41 64.9 °F /  18.3 °C 33.6 °F /  0.9 °C 30.32in /  1026.6hPa Calm   1.0mph /  1.6km/h 31% 0.00in /  0mm 0.0 W/m2
17:47 64.4 °F /  18 °C 33.1 °F /  0.6 °C 30.33in /  1027hPa Calm     31% 0.00in /  0mm 0.0 W/m2
17:53 63.7 °F /  17.6 °C 33.3 °F /  0.7 °C 30.33in /  1027hPa Calm     32% 0.00in /  0mm 0.0 W/m2
17:59 63.0 °F /  17.2 °C 33.4 °F /  0.8 °C 30.33in /  1027hPa Calm   1.0mph /  1.6km/h 33% 0.00in /  0mm 0.0 W/m2
18:05 62.2 °F /  16.8 °C 32.7 °F /  0.4 °C 30.33in /  1027hPa Calm     33% 0.00in /  0mm 0.0 W/m2
18:12 61.5 °F /  16.4 °C 32.9 °F /  0.5 °C 30.34in /  1027.3hPa Calm   1.0mph /  1.6km/h 34% 0.00in /  0mm 0.0 W/m2
18:18 61.2 °F /  16.2 °C 33.3 °F /  0.7 °C 30.34in /  1027.3hPa Calm     35% 0.00in /  0mm 0.0 W/m2
18:24 60.4 °F /  15.8 °C 33.4 °F /  0.8 °C 30.34in /  1027.3hPa Calm   1.0mph /  1.6km/h 36% 0.00in /  0mm 0.0 W/m2
18:30 60.1 °F /  15.6 °C 33.1 °F /  0.6 °C 30.34in /  1027.3hPa Calm   1.0mph /  1.6km/h 36% 0.00in /  0mm 0.0 W/m2
18:36 59.5 °F /  15.3 °C 33.3 °F /  0.7 °C 30.34in /  1027.3hPa Calm   2.0mph /  3.2km/h 37% 0.00in /  0mm 0.0 W/m2
18:42 59.2 °F /  15.1 °C 33.6 °F /  0.9 °C 30.34in /  1027.3hPa Calm   1.0mph /  1.6km/h 38% 0.00in /  0mm 0.0 W/m2
18:49 58.6 °F /  14.8 °C 33.8 °F /  1 °C 30.34in /  1027.3hPa Calm   2.0mph /  3.2km/h 39% 0.00in /  0mm 0.0 W/m2
18:55 58.3 °F /  14.6 °C 33.4 °F /  0.8 °C 30.34in /  1027.3hPa Calm   2.0mph /  3.2km/h 39% 0.00in /  0mm 0.0 W/m2
19:01 57.7 °F /  14.3 °C 33.6 °F /  0.9 °C 30.35in /  1027.7hPa Calm   1.0mph /  1.6km/h 40% 0.00in /  0mm 0.0 W/m2
19:07 57.6 °F /  14.2 °C 34.0 °F /  1.1 °C 30.35in /  1027.7hPa ENE 0.9mph /  1.4km/h 2.0mph /  3.2km/h 41% 0.00in /  0mm 0.0 W/m2
19:12 57.4 °F /  14.1 °C 33.8 °F /  1 °C 30.35in /  1027.7hPa Calm   1.0mph /  1.6km/h 41% 0.00in /  0mm 0.0 W/m2
19:17 57.0 °F /  13.9 °C 33.6 °F /  0.9 °C 30.35in /  1027.7hPa East 2.0mph /  3.2km/h 2.0mph /  3.2km/h 41% 0.00in /  0mm 0.0 W/m2
19:25 56.7 °F /  13.7 °C 33.8 °F /  1 °C 30.35in /  1027.7hPa ENE 0.9mph /  1.4km/h 2.0mph /  3.2km/h 42% 0.00in /  0mm 0.0 W/m2
19:32 56.5 °F /  13.6 °C 34.3 °F /  1.3 °C 30.35in /  1027.7hPa Calm   1.0mph /  1.6km/h 43% 0.00in /  0mm 0.0 W/m2
19:38 55.9 °F /  13.3 °C 33.8 °F /  1 °C 30.36in /  1028hPa NE 2.0mph /  3.2km/h 5.0mph /  8km/h 43% 0.00in /  0mm 0.0 W/m2
19:44 55.8 °F /  13.2 °C 33.6 °F /  0.9 °C 30.36in /  1028hPa ENE 2.0mph /  3.2km/h 3.0mph /  4.8km/h 43% 0.00in /  0mm 0.0 W/m2
19:50 55.8 °F /  13.2 °C 34.2 °F /  1.2 °C 30.36in /  1028hPa ENE 0.9mph /  1.4km/h 5.0mph /  8km/h 44% 0.00in /  0mm 0.0 W/m2
19:56 55.6 °F /  13.1 °C 34.0 °F /  1.1 °C 30.36in /  1028hPa NE 0.9mph /  1.4km/h 3.0mph /  4.8km/h 44% 0.00in /  0mm 0.0 W/m2
20:02 55.2 °F /  12.9 °C 33.6 °F /  0.9 °C 30.36in /  1028hPa Calm   2.0mph /  3.2km/h 44% 0.00in /  0mm 0.0 W/m2
20:08 55.0 °F /  12.8 °C 33.4 °F /  0.8 °C 30.37in /  1028.3hPa East 2.9mph /  4.7km/h 3.0mph /  4.8km/h 44% 0.00in /  0mm 0.0 W/m2
20:14 54.9 °F /  12.7 °C 33.4 °F /  0.8 °C 30.37in /  1028.3hPa Calm   2.0mph /  3.2km/h 44% 0.00in /  0mm 0.0 W/m2
20:20 54.7 °F /  12.6 °C 33.3 °F /  0.7 °C 30.37in /  1028.3hPa Calm   3.0mph /  4.8km/h 44% 0.00in /  0mm 0.0 W/m2
20:27 54.5 °F /  12.5 °C 33.1 °F /  0.6 °C 30.37in /  1028.3hPa NE 0.9mph /  1.4km/h 2.0mph /  3.2km/h 44% 0.00in /  0mm 0.0 W/m2
20:33 54.3 °F /  12.4 °C 32.9 °F /  0.5 °C 30.37in /  1028.3hPa Calm   2.0mph /  3.2km/h 44% 0.00in /  0mm 0.0 W/m2
20:39 54.1 °F /  12.3 °C 33.3 °F /  0.7 °C 30.37in /  1028.3hPa Calm   3.0mph /  4.8km/h 45% 0.00in /  0mm 0.0 W/m2
20:45 54.1 °F /  12.3 °C 32.7 °F /  0.4 °C 30.37in /  1028.3hPa Calm   3.0mph /  4.8km/h 44% 0.00in /  0mm 0.0 W/m2
20:51 54.0 °F /  12.2 °C 32.5 °F /  0.3 °C 30.37in /  1028.3hPa Calm   2.0mph /  3.2km/h 44% 0.00in /  0mm 0.0 W/m2
20:57 54.0 °F /  12.2 °C 32.5 °F /  0.3 °C 30.37in /  1028.3hPa Calm   1.0mph /  1.6km/h 44% 0.00in /  0mm 0.0 W/m2
21:03 54.0 °F /  12.2 °C 33.1 °F /  0.6 °C 30.37in /  1028.3hPa Calm   2.0mph /  3.2km/h 45% 0.00in /  0mm 0.0 W/m2
21:09 54.0 °F /  12.2 °C 32.5 °F /  0.3 °C 30.37in /  1028.3hPa East 0.9mph /  1.4km/h 2.0mph /  3.2km/h 44% 0.00in /  0mm 0.0 W/m2
21:15 53.8 °F /  12.1 °C 32.9 °F /  0.5 °C 30.37in /  1028.3hPa Calm   3.0mph /  4.8km/h 45% 0.00in /  0mm 0.0 W/m2
21:22 53.8 °F /  12.1 °C 32.9 °F /  0.5 °C 30.37in /  1028.3hPa Calm   1.0mph /  1.6km/h 45% 0.00in /  0mm 0.0 W/m2
21:28 53.8 °F /  12.1 °C 32.9 °F /  0.5 °C 30.37in /  1028.3hPa Calm     45% 0.00in /  0mm 0.0 W/m2
21:34 53.4 °F /  11.9 °C 32.5 °F /  0.3 °C 30.37in /  1028.3hPa Calm   1.0mph /  1.6km/h 45% 0.00in /  0mm 0.0 W/m2
21:40 53.4 °F /  11.9 °C 33.1 °F /  0.6 °C 30.37in /  1028.3hPa ENE 0.9mph /  1.4km/h 3.0mph /  4.8km/h 46% 0.00in /  0mm 0.0 W/m2
21:46 53.2 °F /  11.8 °C 33.1 °F /  0.6 °C 30.37in /  1028.3hPa Calm   2.0mph /  3.2km/h 46% 0.00in /  0mm 0.0 W/m2
21:53 53.1 °F /  11.7 °C 32.9 °F /  0.5 °C 30.37in /  1028.3hPa Calm   2.0mph /  3.2km/h 46% 0.00in /  0mm 0.0 W/m2
21:58 53.1 °F /  11.7 °C 32.9 °F /  0.5 °C 30.37in /  1028.3hPa Calm   2.0mph /  3.2km/h 46% 0.00in /  0mm 0.0 W/m2
22:04 52.9 °F /  11.6 °C 32.7 °F /  0.4 °C 30.37in /  1028.3hPa Calm   1.0mph /  1.6km/h 46% 0.00in /  0mm 0.0 W/m2
22:11 52.9 °F /  11.6 °C 33.3 °F /  0.7 °C 30.37in /  1028.3hPa East 0.9mph /  1.4km/h 4.0mph /  6.4km/h 47% 0.00in /  0mm 0.0 W/m2
22:17 52.7 °F /  11.5 °C 33.1 °F /  0.6 °C 30.37in /  1028.3hPa Calm   6.0mph /  9.7km/h 47% 0.00in /  0mm 0.0 W/m2
22:23 52.9 °F /  11.6 °C 33.3 °F /  0.7 °C 30.37in /  1028.3hPa East 2.9mph /  4.7km/h 4.0mph /  6.4km/h 47% 0.00in /  0mm 0.0 W/m2
22:29 52.9 °F /  11.6 °C 33.3 °F /  0.7 °C 30.37in /  1028.3hPa East 2.0mph /  3.2km/h 4.0mph /  6.4km/h 47% 0.00in /  0mm 0.0 W/m2
22:35 53.1 °F /  11.7 °C 33.4 °F /  0.8 °C 30.37in /  1028.3hPa ENE 0.9mph /  1.4km/h 3.0mph /  4.8km/h 47% 0.00in /  0mm 0.0 W/m2
22:41 53.1 °F /  11.7 °C 33.4 °F /  0.8 °C 30.37in /  1028.3hPa East 2.9mph /  4.7km/h 4.0mph /  6.4km/h 47% 0.00in /  0mm 0.0 W/m2
22:47 53.1 °F /  11.7 °C 32.9 °F /  0.5 °C 30.37in /  1028.3hPa East 4.0mph /  6.4km/h 4.0mph /  6.4km/h 46% 0.00in /  0mm 0.0 W/m2
22:53 52.9 °F /  11.6 °C 33.3 °F /  0.7 °C 30.37in /  1028.3hPa East 4.0mph /  6.4km/h 4.0mph /  6.4km/h 47% 0.00in /  0mm 0.0 W/m2
23:00 52.9 °F /  11.6 °C 33.3 °F /  0.7 °C 30.36in /  1028hPa ESE 2.0mph /  3.2km/h 5.0mph /  8km/h 47% 0.00in /  0mm 0.0 W/m2
23:06 52.5 °F /  11.4 °C 32.9 °F /  0.5 °C 30.36in /  1028hPa East 2.0mph /  3.2km/h 5.0mph /  8km/h 47% 0.00in /  0mm 0.0 W/m2
23:12 52.5 °F /  11.4 °C 32.9 °F /  0.5 °C 30.36in /  1028hPa East 2.9mph /  4.7km/h 4.0mph /  6.4km/h 47% 0.00in /  0mm 0.0 W/m2
23:18 52.5 °F /  11.4 °C 32.9 °F /  0.5 °C 30.36in /  1028hPa East 2.9mph /  4.7km/h 3.0mph /  4.8km/h 47% 0.00in /  0mm 0.0 W/m2
23:24 52.3 °F /  11.3 °C 32.7 °F /  0.4 °C 30.36in /  1028hPa Calm   1.0mph /  1.6km/h 47% 0.00in /  0mm 0.0 W/m2
23:30 52.3 °F /  11.3 °C 32.7 °F /  0.4 °C 30.36in /  1028hPa East 0.9mph /  1.4km/h 1.0mph /  1.6km/h 47% 0.00in /  0mm 0.0 W/m2
23:38 52.2 °F /  11.2 °C 32.5 °F /  0.3 °C 30.36in /  1028hPa Calm   2.0mph /  3.2km/h 47% 0.00in /  0mm 0.0 W/m2
23:44 52.2 °F /  11.2 °C 33.1 °F /  0.6 °C 30.36in /  1028hPa Calm   3.0mph /  4.8km/h 48% 0.00in /  0mm 0.0 W/m2
23:46 52.0 °F /  11.1 °C 32.9 °F /  0.5 °C 30.36in /  1028hPa ESE 2.9mph /  4.7km/h 4.0mph /  6.4km/h 48% 0.00in /  0mm 0.0 W/m2
23:48 52.0 °F /  11.1 °C 32.9 °F /  0.5 °C 30.36in /  1028hPa Calm   2.0mph /  3.2km/h 48% 0.00in /  0mm 0.0 W/m2
23:54 52.0 °F /  11.1 °C 32.9 °F /  0.5 °C 30.36in /  1028hPa SE 0.9mph /  1.4km/h 1.0mph /  1.6km/h 48% 0.00in /  0mm 0.0 W/m2
Olympia, Windhoek, Namibia
Compliments of Weather Underground - 3 mb